Track Макаров Николай

Time Latitude Longitude Accuracy (66% radius in meters) Altitude (meters) Speed (km/hour) Bearing (degrees) Battery (%) GPS flag
09:08:39 58.487298 49.754774 0 0 0 0 1 delete
09:08:37 58.487296 49.754774 0 0 0 0 1 delete
09:08:36 58.487282 49.754810 0 0 0 0 1 delete
09:08:35 58.487264 49.754859 0 0 0 0 1 delete
09:08:34 58.487241 49.754911 0 0 0 0 1 delete
09:08:33 58.487216 49.754954 0 0 0 0 1 delete
09:08:32 58.487185 49.755004 0 0 0 0 1 delete
09:08:31 58.487153 49.755053 0 0 0 0 1 delete
09:08:30 58.487123 49.755104 0 0 0 0 1 delete
09:08:29 58.487094 49.755168 0 0 0 0 1 delete
09:08:28 58.487071 49.755236 0 0 0 0 1 delete
09:08:27 58.487046 49.755304 0 0 0 0 1 delete
09:08:26 58.487021 49.755384 0 0 0 0 1 delete
09:08:25 58.486990 49.755472 0 0 0 0 1 delete
09:08:24 58.486957 49.755554 0 0 0 0 1 delete
09:08:23 58.486923 49.755624 0 0 0 0 1 delete
09:08:22 58.486891 49.755691 0 0 0 0 1 delete
09:08:21 58.486864 49.755756 0 0 0 0 1 delete
09:08:20 58.486835 49.755820 0 0 0 0 1 delete
09:08:19 58.486806 49.755890 0 0 0 0 1 delete
09:08:18 58.486777 49.755968 0 0 0 0 1 delete
09:08:17 58.486754 49.756046 0 0 0 0 1 delete
09:08:16 58.486729 49.756128 0 0 0 0 1 delete
09:08:15 58.486703 49.756204 0 0 0 0 1 delete
09:08:14 58.486671 49.756272 0 0 0 0 1 delete
09:08:13 58.486638 49.756339 0 0 0 0 1 delete
09:08:12 58.486605 49.756398 0 0 0 0 1 delete
09:08:11 58.486571 49.756471 0 0 0 0 1 delete
09:08:10 58.486538 49.756536 0 0 0 0 1 delete
09:08:09 58.486499 49.756598 0 0 0 0 1 delete
09:08:08 58.486465 49.756658 0 0 0 0 1 delete
09:08:07 58.486436 49.756724 0 0 0 0 1 delete
09:08:06 58.486413 49.756786 0 0 0 0 1 delete
09:08:05 58.486385 49.756851 0 0 0 0 1 delete
09:08:04 58.486364 49.756923 0 0 0 0 1 delete
09:08:03 58.486351 49.756990 0 0 0 0 1 delete
09:08:02 58.486337 49.757054 0 0 0 0 1 delete
09:08:01 58.486317 49.757114 0 0 0 0 1 delete
09:08:00 58.486294 49.757178 0 0 0 0 1 delete
09:07:59 58.486263 49.757246 0 0 0 0 1 delete
09:07:58 58.486227 49.757319 0 0 0 0 1 delete
09:07:57 58.486193 49.757391 0 0 0 0 1 delete
09:07:56 58.486159 49.757456 0 0 0 0 1 delete
09:07:55 58.486134 49.757512 0 0 0 0 1 delete
09:07:54 58.486113 49.757576 0 0 0 0 1 delete
09:07:53 58.486095 49.757639 0 0 0 0 1 delete
09:07:52 58.486073 49.757711 0 0 0 0 1 delete
09:07:51 58.486051 49.757778 0 0 0 0 1 delete
09:07:50 58.486029 49.757849 0 0 0 0 1 delete
09:07:49 58.486008 49.757924 0 0 0 0 1 delete